Mar de Ajo, Argentina
Current Conditions -  °F | °C
As of 4:00 AM on Sunday 26 Oct 2014 (Local Time) from SAZM Reporting Station
Scattered Clouds Scattered Clouds  
Wind Chill: 59°   Ceiling: Unl
Heat Index: 59°   Visibility: 4mi
Dew Point: 57°   Wind: 12mph
Humidity: 94%   Direction: 320°NW
Pressure: 29.8"   Gusts: NA
Location:  36.72°S, 56.69°W
Report Text: SAZM 260700Z 32010KT 7000 SCT025 SCT10015/14 Q1009
Loading
Personal Weather Stations






























Interactive Weather Map
Tropical Storm Tracking
New forecast layout! Learn more

10-Day Weather Forecast

Advertisements
Track Severe Weather on mobile